Time;durP1;ratioP1;P1;durP2;ratioP2;P2;SDS_P1;SDS_P2;PMS_P1;PMS_P2;Temp;Humidity;BMP_temperature;BMP_pressure;BME280_temperature;BME280_humidity;BME280_pressure;Samples;Min_cycle;Max_cycle;Signal;HPM_P1;HPM_P2
2022/12/16 00:00:08;;;;;;;;;;;-4.30;99.90;;;;;;5068699;28;19917;-64
2022/12/16 00:02:34;;;;;;;;;;;-4.40;99.90;;;;;;5073433;28;20016;-65
2022/12/16 00:04:59;;;;;;;;;;;-4.50;99.90;;;;;;5060137;28;20435;-64
2022/12/16 00:07:25;;;;;;;;;;;-4.40;99.90;;;;;;5075286;28;19927;-64
2022/12/16 00:09:50;;;;;;;;;;;-4.40;99.90;;;;;;5072188;28;19913;-65
2022/12/16 00:12:15;;;;;;;;;;;-4.50;99.90;;;;;;5074646;28;20449;-63
2022/12/16 00:14:41;;;;;;;;;;;-4.60;99.90;;;;;;5076879;28;19916;-66
2022/12/16 00:17:06;;;;;;;;;;;-4.70;99.90;;;;;;5067103;28;20289;-65
2022/12/16 00:19:32;;;;;;;;;;;-4.60;99.90;;;;;;5083427;28;20360;-64
2022/12/16 00:21:57;;;;;;;;;;;-4.70;99.90;;;;;;5078865;28;19943;-65
2022/12/16 00:24:23;;;;;;;;;;;-4.60;99.90;;;;;;5076222;28;19938;-66
2022/12/16 00:26:48;;;;;;;;;;;-4.70;99.90;;;;;;5077179;28;20416;-64
2022/12/16 00:29:14;;;;;;;;;;;-4.60;99.90;;;;;;5072735;28;20707;-65
2022/12/16 00:31:39;;;;;;;;;;;-4.70;99.90;;;;;;5054560;28;19912;-66
2022/12/16 00:34:04;;;;;;;;;;;-4.80;99.90;;;;;;5070746;28;20011;-64
2022/12/16 00:36:30;;;;;;;;;;;-4.80;99.90;;;;;;5086653;28;19909;-65
2022/12/16 00:38:55;;;;;;;;;;;-4.90;99.90;;;;;;5082385;28;19916;-64
2022/12/16 00:41:21;;;;;;;;;;;-4.80;99.90;;;;;;5079627;28;20452;-65
2022/12/16 00:43:47;;;;;;;;;;;-4.80;99.90;;;;;;5067091;28;19913;-65
2022/12/16 00:46:12;;;;;;;;;;;-4.90;99.90;;;;;;5074418;28;19912;-64
2022/12/16 00:48:37;;;;;;;;;;;-4.80;99.90;;;;;;5088481;22;19929;-63
2022/12/16 00:51:03;;;;;;;;;;;-4.60;99.90;;;;;;5070483;28;19916;-63
2022/12/16 00:53:28;;;;;;;;;;;-4.60;99.90;;;;;;5068211;28;20404;-62
2022/12/16 00:56:01;;;;;;;;;;;-4.70;99.90;;;;;;5071916;28;19916;-62
2022/12/16 00:58:26;;;;;;;;;;;-4.70;99.90;;;;;;5069233;28;19999;-63
2022/12/16 01:00:52;;;;;;;;;;;-4.80;99.90;;;;;;5070009;28;20007;-64
2022/12/16 01:03:17;;;;;;;;;;;-4.80;99.90;;;;;;5067445;28;19912;-63
2022/12/16 01:05:43;;;;;;;;;;;-4.80;99.90;;;;;;5071121;28;19921;-61
2022/12/16 01:08:08;;;;;;;;;;;-4.70;99.90;;;;;;5068547;28;20452;-63
2022/12/16 01:10:34;;;;;;;;;;;-4.70;99.90;;;;;;5070646;28;20011;-61
2022/12/16 01:13:00;;;;;;;;;;;-4.70;99.90;;;;;;5072123;28;19959;-62
2022/12/16 01:15:25;;;;;;;;;;;-4.60;99.90;;;;;;5070110;28;19920;-62
2022/12/16 01:17:51;;;;;;;;;;;-4.70;99.90;;;;;;5054083;28;19947;-62
2022/12/16 01:20:16;;;;;;;;;;;-4.70;99.90;;;;;;5066922;28;19958;-63
2022/12/16 01:22:42;;;;;;;;;;;-4.70;99.90;;;;;;5069842;28;19912;-62
2022/12/16 01:25:09;;;;;;;;;;;-4.60;99.90;;;;;;5068128;28;19912;-61
2022/12/16 01:27:35;;;;;;;;;;;-4.80;99.90;;;;;;5071121;28;19916;-62
2022/12/16 01:30:00;;;;;;;;;;;-4.70;99.90;;;;;;5069568;28;19927;-62
2022/12/16 01:32:26;;;;;;;;;;;-4.70;99.90;;;;;;5067488;28;19927;-61
2022/12/16 01:34:52;;;;;;;;;;;-4.70;99.90;;;;;;5051958;28;19912;-62
2022/12/16 01:37:19;;;;;;;;;;;-4.60;99.90;;;;;;5068631;28;19920;-62
2022/12/16 01:39:45;;;;;;;;;;;-4.60;99.90;;;;;;5066965;28;19913;-61
2022/12/16 01:42:14;;;;;;;;;;;-4.50;99.90;;;;;;5068886;28;19958;-62
2022/12/16 01:44:43;;;;;;;;;;;-4.70;99.90;;;;;;5065368;28;19958;-61
2022/12/16 01:47:13;;;;;;;;;;;-4.70;99.90;;;;;;5068756;28;19916;-61
2022/12/16 01:49:41;;;;;;;;;;;-4.70;99.90;;;;;;5069343;28;20614;-63
2022/12/16 01:52:10;;;;;;;;;;;-4.70;99.90;;;;;;5069915;28;19912;-62
2022/12/16 01:54:42;;;;;;;;;;;-4.70;99.90;;;;;;5065985;28;19912;-62
2022/12/16 01:57:18;;;;;;;;;;;-4.90;99.90;;;;;;5069261;28;20476;-62
2022/12/16 01:59:45;;;;;;;;;;;-5.10;99.90;;;;;;5066481;28;19913;-61
2022/12/16 02:02:11;;;;;;;;;;;-5.10;99.90;;;;;;5067861;28;19920;-62
2022/12/16 02:05:19;;;;;;;;;;;-5.00;99.90;;;;;;5066625;28;20014;-62
2022/12/16 02:07:22;;;;;;;;;;;-4.90;99.90;;;;;;5064331;28;20016;-66
2022/12/16 02:12:58;;;;;;;;;;;-4.80;99.90;;;;;;5062155;28;19958;-61
2022/12/16 02:15:26;;;;;;;;;;;-4.70;99.90;;;;;;5063911;28;19927;-64
2022/12/16 02:17:54;;;;;;;;;;;-4.70;99.90;;;;;;5065252;28;19920;-63
2022/12/16 02:20:44;;;;;;;;;;;-4.70;99.90;;;;;;5070518;28;19913;-63
2022/12/16 02:23:09;;;;;;;;;;;-4.60;99.90;;;;;;5046605;28;20370;-61
2022/12/16 02:25:45;;;;;;;;;;;-4.50;99.90;;;;;;5069606;28;20499;-63
2022/12/16 02:28:21;;;;;;;;;;;-4.60;99.90;;;;;;5070702;28;19979;-63
2022/12/16 02:30:55;;;;;;;;;;;-4.90;99.90;;;;;;5069532;28;20358;-63
2022/12/16 02:33:21;;;;;;;;;;;-5.00;99.90;;;;;;5064071;28;19921;-62
2022/12/16 02:36:00;;;;;;;;;;;-5.10;99.90;;;;;;5065133;28;19935;-62
2022/12/16 02:38:29;;;;;;;;;;;-5.10;99.90;;;;;;5069363;28;19920;-62
2022/12/16 02:41:05;;;;;;;;;;;-5.00;99.90;;;;;;5061006;28;20392;-62
2022/12/16 02:43:33;;;;;;;;;;;-5.00;99.90;;;;;;5068142;28;19944;-62
2022/12/16 02:45:59;;;;;;;;;;;-4.90;99.90;;;;;;5065134;28;19999;-62
2022/12/16 02:48:25;;;;;;;;;;;-4.80;99.90;;;;;;5067305;28;20007;-62
2022/12/16 02:50:51;;;;;;;;;;;-4.90;99.90;;;;;;5062569;28;19934;-62
2022/12/16 02:53:17;;;;;;;;;;;-4.90;99.90;;;;;;5065857;28;20433;-62
2022/12/16 02:56:06;;;;;;;;;;;-4.80;99.90;;;;;;5066636;28;20162;-63
2022/12/16 02:58:35;;;;;;;;;;;-4.90;99.90;;;;;;5059982;28;20003;-64
2022/12/16 03:01:16;;;;;;;;;;;-4.90;99.90;;;;;;5070768;28;19953;-64
2022/12/16 03:03:44;;;;;;;;;;;-4.80;99.90;;;;;;5069570;28;19923;-63
2022/12/16 03:06:11;;;;;;;;;;;-4.80;99.90;;;;;;5066620;28;19919;-63
2022/12/16 03:08:39;;;;;;;;;;;-4.80;99.90;;;;;;5061666;28;20301;-64
2022/12/16 03:11:07;;;;;;;;;;;-4.90;99.90;;;;;;5064225;28;19912;-61
2022/12/16 03:13:43;;;;;;;;;;;-4.90;99.90;;;;;;5065129;28;20293;-63
2022/12/16 03:16:11;;;;;;;;;;;-4.90;99.90;;;;;;5064000;28;19916;-62
2022/12/16 03:18:38;;;;;;;;;;;-4.70;99.90;;;;;;5061852;28;19913;-62
2022/12/16 03:21:06;;;;;;;;;;;-4.70;99.90;;;;;;5064793;28;19924;-62
2022/12/16 03:23:35;;;;;;;;;;;-4.60;99.90;;;;;;5063602;28;19916;-62
2022/12/16 03:26:03;;;;;;;;;;;-4.60;99.90;;;;;;5063700;28;19923;-62
2022/12/16 03:28:39;;;;;;;;;;;-4.60;99.90;;;;;;5065244;28;19925;-63
2022/12/16 03:31:09;;;;;;;;;;;-4.70;99.90;;;;;;5067181;28;19967;-60
2022/12/16 03:33:38;;;;;;;;;;;-4.60;99.90;;;;;;5065857;28;19913;-62
2022/12/16 03:36:08;;;;;;;;;;;-4.70;99.90;;;;;;5069063;28;19916;-63
2022/12/16 03:38:35;;;;;;;;;;;-4.80;99.90;;;;;;5067375;28;20442;-62
2022/12/16 03:41:02;;;;;;;;;;;-4.70;99.90;;;;;;5070065;28;19913;-64
2022/12/16 03:43:27;;;;;;;;;;;-4.60;99.90;;;;;;5063873;28;20037;-62
2022/12/16 03:45:55;;;;;;;;;;;-4.70;99.90;;;;;;5067960;28;19995;-63
2022/12/16 03:48:22;;;;;;;;;;;-4.70;99.90;;;;;;5062759;28;20370;-63
2022/12/16 03:50:47;;;;;;;;;;;-4.80;99.90;;;;;;5066946;28;19966;-62
2022/12/16 03:53:12;;;;;;;;;;;-4.80;99.90;;;;;;5066986;28;19916;-63
2022/12/16 03:55:38;;;;;;;;;;;-5.00;99.90;;;;;;5064590;28;19917;-62
2022/12/16 03:58:04;;;;;;;;;;;-5.00;99.90;;;;;;5064450;28;19919;-62
2022/12/16 04:00:29;;;;;;;;;;;-5.00;99.90;;;;;;5067546;28;19959;-62
2022/12/16 04:02:54;;;;;;;;;;;-5.00;99.90;;;;;;5069577;28;20384;-62
2022/12/16 04:05:20;;;;;;;;;;;-4.90;99.90;;;;;;5065396;28;20348;-63
2022/12/16 04:07:45;;;;;;;;;;;-5.00;99.90;;;;;;5061516;28;20282;-62
2022/12/16 04:10:11;;;;;;;;;;;-5.00;99.90;;;;;;5066724;28;20480;-63
2022/12/16 04:26:21;;;;;;;;;;;-5.00;99.90;;;;;;5063673;28;19969;-63
2022/12/16 04:28:46;;;;;;;;;;;-4.90;99.90;;;;;;5063806;28;19951;-62
2022/12/16 04:31:12;;;;;;;;;;;-5.20;99.90;;;;;;5062145;28;20397;-62
